sensor_id;sensor_type;location;lat;lon;timestamp;temperature;humidity
3794;DHT22;1912;51.358;12.282;2023-06-26T00:00:34;20.80;1.00
3794;DHT22;1912;51.358;12.282;2023-06-26T00:02:59;20.80;1.00
3794;DHT22;1912;51.358;12.282;2023-06-26T00:05:25;20.70;1.00
3794;DHT22;1912;51.358;12.282;2023-06-26T00:07:53;20.70;1.00
3794;DHT22;1912;51.358;12.282;2023-06-26T00:10:18;20.60;1.00
3794;DHT22;1912;51.358;12.282;2023-06-26T00:12:44;20.50;1.00
3794;DHT22;1912;51.358;12.282;2023-06-26T00:15:10;20.50;1.00
3794;DHT22;1912;51.358;12.282;2023-06-26T00:17:37;20.50;1.00
3794;DHT22;1912;51.358;12.282;2023-06-26T00:20:03;20.40;1.00
3794;DHT22;1912;51.358;12.282;2023-06-26T00:22:30;20.30;1.00
3794;DHT22;1912;51.358;12.282;2023-06-26T00:24:56;20.30;1.00
3794;DHT22;1912;51.358;12.282;2023-06-26T00:27:22;20.10;1.00
3794;DHT22;1912;51.358;12.282;2023-06-26T00:29:47;20.10;1.00
3794;DHT22;1912;51.358;12.282;2023-06-26T00:32:13;20.10;1.00
3794;DHT22;1912;51.358;12.282;2023-06-26T00:34:38;20.00;1.00
3794;DHT22;1912;51.358;12.282;2023-06-26T00:37:04;20.00;1.00
3794;DHT22;1912;51.358;12.282;2023-06-26T00:39:30;19.90;1.00
3794;DHT22;1912;51.358;12.282;2023-06-26T00:41:55;19.90;1.00
3794;DHT22;1912;51.358;12.282;2023-06-26T00:44:21;19.90;1.00
3794;DHT22;1912;51.358;12.282;2023-06-26T00:46:47;19.90;1.00
3794;DHT22;1912;51.358;12.282;2023-06-26T00:49:13;19.90;1.00
3794;DHT22;1912;51.358;12.282;2023-06-26T00:51:39;19.90;1.00
3794;DHT22;1912;51.358;12.282;2023-06-26T00:54:05;20.00;1.00
3794;DHT22;1912;51.358;12.282;2023-06-26T00:56:31;20.10;1.00
3794;DHT22;1912;51.358;12.282;2023-06-26T00:58:57;20.10;1.00
3794;DHT22;1912;51.358;12.282;2023-06-26T01:01:23;20.00;1.00
3794;DHT22;1912;51.358;12.282;2023-06-26T01:03:51;20.10;1.00
3794;DHT22;1912;51.358;12.282;2023-06-26T01:06:20;20.10;1.00
3794;DHT22;1912;51.358;12.282;2023-06-26T01:08:48;20.10;1.00
3794;DHT22;1912;51.358;12.282;2023-06-26T01:11:14;20.10;1.00
3794;DHT22;1912;51.358;12.282;2023-06-26T01:13:42;20.10;1.00
3794;DHT22;1912;51.358;12.282;2023-06-26T03:46:19;19.50;1.00
3794;DHT22;1912;51.358;12.282;2023-06-26T03:48:45;19.50;1.00
3794;DHT22;1912;51.358;12.282;2023-06-26T03:51:10;19.50;1.00
3794;DHT22;1912;51.358;12.282;2023-06-26T03:53:36;19.50;1.00
3794;DHT22;1912;51.358;12.282;2023-06-26T03:56:02;19.50;1.00
3794;DHT22;1912;51.358;12.282;2023-06-26T03:58:27;19.60;1.00
3794;DHT22;1912;51.358;12.282;2023-06-26T04:00:53;19.60;1.00
3794;DHT22;1912;51.358;12.282;2023-06-26T04:03:19;19.60;1.00
3794;DHT22;1912;51.358;12.282;2023-06-26T04:05:44;19.60;1.00
3794;DHT22;1912;51.358;12.282;2023-06-26T04:08:10;19.60;1.00
3794;DHT22;1912;51.358;12.282;2023-06-26T04:10:35;19.70;1.00
3794;DHT22;1912;51.358;12.282;2023-06-26T04:13:01;19.70;1.00
3794;DHT22;1912;51.358;12.282;2023-06-26T04:15:27;19.80;1.00
3794;DHT22;1912;51.358;12.282;2023-06-26T04:17:53;19.80;1.00
3794;DHT22;1912;51.358;12.282;2023-06-26T04:20:19;19.80;1.00
3794;DHT22;1912;51.358;12.282;2023-06-26T04:22:44;19.80;1.00
3794;DHT22;1912;51.358;12.282;2023-06-26T04:25:10;19.90;1.00
3794;DHT22;1912;51.358;12.282;2023-06-26T04:27:37;19.90;1.00
3794;DHT22;1912;51.358;12.282;2023-06-26T04:30:03;20.00;1.00
3794;DHT22;1912;51.358;12.282;2023-06-26T04:32:30;20.00;1.00
3794;DHT22;1912;51.358;12.282;2023-06-26T04:34:56;20.00;1.00
3794;DHT22;1912;51.358;12.282;2023-06-26T04:37:22;20.10;1.00
3794;DHT22;1912;51.358;12.282;2023-06-26T04:39:48;20.10;1.00
3794;DHT22;1912;51.358;12.282;2023-06-26T04:42:13;20.20;1.00
3794;DHT22;1912;51.358;12.282;2023-06-26T04:44:39;20.20;1.00
3794;DHT22;1912;51.358;12.282;2023-06-26T04:47:07;20.30;1.00
3794;DHT22;1912;51.358;12.282;2023-06-26T04:49:33;20.40;1.00
3794;DHT22;1912;51.358;12.282;2023-06-26T04:51:59;20.40;1.00
3794;DHT22;1912;51.358;12.282;2023-06-26T04:54:28;20.50;1.00
3794;DHT22;1912;51.358;12.282;2023-06-26T04:56:54;20.60;1.00
3794;DHT22;1912;51.358;12.282;2023-06-26T04:59:19;20.60;1.00
3794;DHT22;1912;51.358;12.282;2023-06-26T05:01:45;20.70;1.00
3794;DHT22;1912;51.358;12.282;2023-06-26T05:04:14;20.70;1.00
3794;DHT22;1912;51.358;12.282;2023-06-26T05:06:43;20.80;1.00
3794;DHT22;1912;51.358;12.282;2023-06-26T05:09:09;20.90;1.00
3794;DHT22;1912;51.358;12.282;2023-06-26T05:11:36;20.90;1.00
3794;DHT22;1912;51.358;12.282;2023-06-26T05:14:02;21.00;1.00
3794;DHT22;1912;51.358;12.282;2023-06-26T05:16:27;21.10;1.00
3794;DHT22;1912;51.358;12.282;2023-06-26T05:18:53;21.20;1.00
3794;DHT22;1912;51.358;12.282;2023-06-26T05:21:20;21.20;1.00
3794;DHT22;1912;51.358;12.282;2023-06-26T05:23:46;21.40;1.00
3794;DHT22;1912;51.358;12.282;2023-06-26T05:26:13;21.40;1.00
3794;DHT22;1912;51.358;12.282;2023-06-26T05:28:39;21.50;1.00
3794;DHT22;1912;51.358;12.282;2023-06-26T05:31:05;21.60;1.00
3794;DHT22;1912;51.358;12.282;2023-06-26T05:33:31;21.70;1.00
3794;DHT22;1912;51.358;12.282;2023-06-26T05:36:02;21.70;1.00
3794;DHT22;1912;51.358;12.282;2023-06-26T05:38:29;21.90;1.00
3794;DHT22;1912;51.358;12.282;2023-06-26T05:40:55;22.00;1.00
3794;DHT22;1912;51.358;12.282;2023-06-26T05:43:21;22.60;1.00
3794;DHT22;1912;51.358;12.282;2023-06-26T05:45:48;23.30;1.00
3794;DHT22;1912;51.358;12.282;2023-06-26T05:48:14;23.90;1.00
3794;DHT22;1912;51.358;12.282;2023-06-26T05:50:40;24.30;1.00
3794;DHT22;1912;51.358;12.282;2023-06-26T05:53:08;24.70;1.00
3794;DHT22;1912;51.358;12.282;2023-06-26T05:55:33;25.00;1.00
3794;DHT22;1912;51.358;12.282;2023-06-26T05:58:00;25.10;1.00
3794;DHT22;1912;51.358;12.282;2023-06-26T06:00:27;25.20;1.00
3794;DHT22;1912;51.358;12.282;2023-06-26T06:02:53;25.20;1.00
3794;DHT22;1912;51.358;12.282;2023-06-26T06:05:22;25.50;1.00
3794;DHT22;1912;51.358;12.282;2023-06-26T06:07:49;25.60;1.00
3794;DHT22;1912;51.358;12.282;2023-06-26T06:10:15;25.80;1.00
3794;DHT22;1912;51.358;12.282;2023-06-26T06:12:41;25.90;1.00
3794;DHT22;1912;51.358;12.282;2023-06-26T06:15:07;26.10;1.00
3794;DHT22;1912;51.358;12.282;2023-06-26T06:17:33;26.20;1.00
3794;DHT22;1912;51.358;12.282;2023-06-26T06:19:58;26.00;1.00
3794;DHT22;1912;51.358;12.282;2023-06-26T06:22:24;26.00;1.00
3794;DHT22;1912;51.358;12.282;2023-06-26T06:24:50;25.80;1.00
3794;DHT22;1912;51.358;12.282;2023-06-26T06:27:16;25.80;1.00
3794;DHT22;1912;51.358;12.282;2023-06-26T06:29:42;25.80;1.00
3794;DHT22;1912;51.358;12.282;2023-06-26T06:32:08;25.70;1.00
3794;DHT22;1912;51.358;12.282;2023-06-26T06:34:34;25.70;1.00
3794;DHT22;1912;51.358;12.282;2023-06-26T06:36:59;26.10;1.00
3794;DHT22;1912;51.358;12.282;2023-06-26T06:39:25;25.90;1.00
3794;DHT22;1912;51.358;12.282;2023-06-26T06:41:51;26.20;1.00
3794;DHT22;1912;51.358;12.282;2023-06-26T06:44:17;26.50;1.00
3794;DHT22;1912;51.358;12.282;2023-06-26T06:46:42;26.30;1.00
3794;DHT22;1912;51.358;12.282;2023-06-26T06:49:08;26.10;1.00
3794;DHT22;1912;51.358;12.282;2023-06-26T06:51:34;26.00;1.00
3794;DHT22;1912;51.358;12.282;2023-06-26T06:54:00;25.90;1.00
3794;DHT22;1912;51.358;12.282;2023-06-26T06:56:26;26.20;1.00
3794;DHT22;1912;51.358;12.282;2023-06-26T06:58:52;26.40;1.00
3794;DHT22;1912;51.358;12.282;2023-06-26T07:01:17;26.20;1.00
3794;DHT22;1912;51.358;12.282;2023-06-26T07:03:43;26.30;1.00
3794;DHT22;1912;51.358;12.282;2023-06-26T07:06:09;26.50;1.00
3794;DHT22;1912;51.358;12.282;2023-06-26T07:08:34;26.50;1.00
3794;DHT22;1912;51.358;12.282;2023-06-26T07:11:01;26.80;1.00
3794;DHT22;1912;51.358;12.282;2023-06-26T07:13:26;26.90;1.00
3794;DHT22;1912;51.358;12.282;2023-06-26T07:15:52;27.00;1.00
3794;DHT22;1912;51.358;12.282;2023-06-26T07:18:18;27.10;1.00
3794;DHT22;1912;51.358;12.282;2023-06-26T07:20:43;27.20;1.00
3794;DHT22;1912;51.358;12.282;2023-06-26T07:23:09;26.90;1.00
3794;DHT22;1912;51.358;12.282;2023-06-26T07:25:36;27.00;1.00
3794;DHT22;1912;51.358;12.282;2023-06-26T07:28:02;27.10;1.00
3794;DHT22;1912;51.358;12.282;2023-06-26T07:30:28;27.30;1.00
3794;DHT22;1912;51.358;12.282;2023-06-26T07:32:53;27.50;1.00
3794;DHT22;1912;51.358;12.282;2023-06-26T07:35:19;27.20;1.00
3794;DHT22;1912;51.358;12.282;2023-06-26T07:37:45;27.30;1.00
3794;DHT22;1912;51.358;12.282;2023-06-26T07:40:11;27.60;1.00
3794;DHT22;1912;51.358;12.282;2023-06-26T07:42:36;28.10;1.00
3794;DHT22;1912;51.358;12.282;2023-06-26T07:45:03;27.90;1.00
3794;DHT22;1912;51.358;12.282;2023-06-26T07:47:35;28.00;1.00
3794;DHT22;1912;51.358;12.282;2023-06-26T07:50:02;28.10;1.00
3794;DHT22;1912;51.358;12.282;2023-06-26T07:52:28;28.30;1.00
3794;DHT22;1912;51.358;12.282;2023-06-26T07:54:55;28.70;1.00
3794;DHT22;1912;51.358;12.282;2023-06-26T07:57:21;28.80;1.00
3794;DHT22;1912;51.358;12.282;2023-06-26T07:59:47;29.00;1.00
3794;DHT22;1912;51.358;12.282;2023-06-26T08:02:12;29.10;1.00
3794;DHT22;1912;51.358;12.282;2023-06-26T08:04:38;29.10;1.00
3794;DHT22;1912;51.358;12.282;2023-06-26T08:07:04;28.70;1.00
3794;DHT22;1912;51.358;12.282;2023-06-26T08:09:30;29.00;1.00
3794;DHT22;1912;51.358;12.282;2023-06-26T08:11:57;29.60;1.00
3794;DHT22;1912;51.358;12.282;2023-06-26T08:14:24;29.50;1.00
3794;DHT22;1912;51.358;12.282;2023-06-26T08:16:50;29.50;1.00
3794;DHT22;1912;51.358;12.282;2023-06-26T08:19:16;29.30;1.00
3794;DHT22;1912;51.358;12.282;2023-06-26T08:21:43;29.70;1.00
3794;DHT22;1912;51.358;12.282;2023-06-26T08:24:10;30.10;1.00
3794;DHT22;1912;51.358;12.282;2023-06-26T08:26:36;29.90;1.00
3794;DHT22;1912;51.358;12.282;2023-06-26T08:29:03;30.10;1.00
3794;DHT22;1912;51.358;12.282;2023-06-26T08:31:34;30.20;1.00
3794;DHT22;1912;51.358;12.282;2023-06-26T08:34:01;30.60;1.00
3794;DHT22;1912;51.358;12.282;2023-06-26T08:36:28;31.00;1.00
3794;DHT22;1912;51.358;12.282;2023-06-26T08:38:54;30.60;1.00
3794;DHT22;1912;51.358;12.282;2023-06-26T08:41:19;31.00;1.00
3794;DHT22;1912;51.358;12.282;2023-06-26T08:43:45;30.80;1.00
3794;DHT22;1912;51.358;12.282;2023-06-26T08:46:11;31.10;1.00
3794;DHT22;1912;51.358;12.282;2023-06-26T08:48:37;31.50;1.00
3794;DHT22;1912;51.358;12.282;2023-06-26T08:51:16;31.30;1.00
3794;DHT22;1912;51.358;12.282;2023-06-26T08:53:59;31.70;1.00
3794;DHT22;1912;51.358;12.282;2023-06-26T08:56:32;31.70;1.00
3794;DHT22;1912;51.358;12.282;2023-06-26T08:59:01;31.80;1.00
3794;DHT22;1912;51.358;12.282;2023-06-26T09:01:27;31.90;1.00
3794;DHT22;1912;51.358;12.282;2023-06-26T09:03:53;32.10;1.00
3794;DHT22;1912;51.358;12.282;2023-06-26T09:06:19;32.50;1.00
3794;DHT22;1912;51.358;12.282;2023-06-26T09:08:45;32.20;1.00
3794;DHT22;1912;51.358;12.282;2023-06-26T09:11:11;32.10;1.00
3794;DHT22;1912;51.358;12.282;2023-06-26T09:13:37;32.50;1.00
3794;DHT22;1912;51.358;12.282;2023-06-26T09:16:08;32.80;1.00
3794;DHT22;1912;51.358;12.282;2023-06-26T09:18:35;33.10;1.00
3794;DHT22;1912;51.358;12.282;2023-06-26T09:21:06;33.50;1.00
3794;DHT22;1912;51.358;12.282;2023-06-26T09:23:34;33.00;1.00
3794;DHT22;1912;51.358;12.282;2023-06-26T09:26:05;33.60;1.00
3794;DHT22;1912;51.358;12.282;2023-06-26T09:28:35;33.20;1.00
3794;DHT22;1912;51.358;12.282;2023-06-26T09:31:05;33.00;1.00
3794;DHT22;1912;51.358;12.282;2023-06-26T09:33:38;33.30;1.00
3794;DHT22;1912;51.358;12.282;2023-06-26T09:36:07;33.80;1.00
3794;DHT22;1912;51.358;12.282;2023-06-26T09:38:37;34.00;1.00
3794;DHT22;1912;51.358;12.282;2023-06-26T09:41:05;33.60;1.00
3794;DHT22;1912;51.358;12.282;2023-06-26T09:43:31;33.60;1.00
3794;DHT22;1912;51.358;12.282;2023-06-26T09:45:57;33.30;1.00
3794;DHT22;1912;51.358;12.282;2023-06-26T09:48:23;33.60;1.00
3794;DHT22;1912;51.358;12.282;2023-06-26T09:50:49;33.90;1.00
3794;DHT22;1912;51.358;12.282;2023-06-26T09:53:15;34.20;1.00
3794;DHT22;1912;51.358;12.282;2023-06-26T09:55:41;33.60;1.00
3794;DHT22;1912;51.358;12.282;2023-06-26T09:58:10;33.20;1.00
3794;DHT22;1912;51.358;12.282;2023-06-26T10:00:40;33.50;1.00
3794;DHT22;1912;51.358;12.282;2023-06-26T10:03:07;33.30;1.00
3794;DHT22;1912;51.358;12.282;2023-06-26T10:05:33;33.10;1.00
3794;DHT22;1912;51.358;12.282;2023-06-26T10:07:59;33.10;1.00
3794;DHT22;1912;51.358;12.282;2023-06-26T10:10:27;33.10;1.00
3794;DHT22;1912;51.358;12.282;2023-06-26T10:12:59;33.40;1.00
3794;DHT22;1912;51.358;12.282;2023-06-26T10:15:27;33.60;1.00
3794;DHT22;1912;51.358;12.282;2023-06-26T10:17:56;33.70;1.00
3794;DHT22;1912;51.358;12.282;2023-06-26T10:20:23;33.90;1.00
3794;DHT22;1912;51.358;12.282;2023-06-26T10:22:49;33.70;1.00
3794;DHT22;1912;51.358;12.282;2023-06-26T10:25:18;34.10;1.00
3794;DHT22;1912;51.358;12.282;2023-06-26T10:27:58;34.10;1.00
3794;DHT22;1912;51.358;12.282;2023-06-26T10:30:33;34.10;1.00
3794;DHT22;1912;51.358;12.282;2023-06-26T10:33:01;34.00;1.00
3794;DHT22;1912;51.358;12.282;2023-06-26T10:35:27;34.60;1.00
3794;DHT22;1912;51.358;12.282;2023-06-26T10:38:00;34.70;1.00
3794;DHT22;1912;51.358;12.282;2023-06-26T10:40:46;34.80;1.00
3794;DHT22;1912;51.358;12.282;2023-06-26T10:43:14;34.70;1.00
3794;DHT22;1912;51.358;12.282;2023-06-26T10:45:48;34.50;1.00
3794;DHT22;1912;51.358;12.282;2023-06-26T10:48:18;34.60;1.00
3794;DHT22;1912;51.358;12.282;2023-06-26T10:50:47;35.10;1.00
3794;DHT22;1912;51.358;12.282;2023-06-26T11:03:37;34.60;1.00
3794;DHT22;1912;51.358;12.282;2023-06-26T11:06:28;34.70;1.00
3794;DHT22;1912;51.358;12.282;2023-06-26T11:09:07;35.00;1.00
3794;DHT22;1912;51.358;12.282;2023-06-26T11:14:18;34.90;1.00
3794;DHT22;1912;51.358;12.282;2023-06-26T11:16:44;34.50;1.00
3794;DHT22;1912;51.358;12.282;2023-06-26T11:19:10;34.60;1.00
3794;DHT22;1912;51.358;12.282;2023-06-26T11:21:40;34.60;1.00
3794;DHT22;1912;51.358;12.282;2023-06-26T11:24:09;35.30;1.00
3794;DHT22;1912;51.358;12.282;2023-06-26T11:26:43;34.70;1.00
3794;DHT22;1912;51.358;12.282;2023-06-26T11:29:10;34.00;1.00
3794;DHT22;1912;51.358;12.282;2023-06-26T11:31:40;33.80;1.00
3794;DHT22;1912;51.358;12.282;2023-06-26T11:34:08;33.70;1.00
3794;DHT22;1912;51.358;12.282;2023-06-26T11:36:39;34.50;1.00
3794;DHT22;1912;51.358;12.282;2023-06-26T11:39:07;34.50;1.00
3794;DHT22;1912;51.358;12.282;2023-06-26T11:41:34;34.80;1.00
3794;DHT22;1912;51.358;12.282;2023-06-26T11:44:05;34.90;1.00
3794;DHT22;1912;51.358;12.282;2023-06-26T11:46:34;34.30;1.00
3794;DHT22;1912;51.358;12.282;2023-06-26T11:49:03;33.80;1.00
3794;DHT22;1912;51.358;12.282;2023-06-26T11:51:29;34.50;1.00
3794;DHT22;1912;51.358;12.282;2023-06-26T11:53:55;35.00;1.00
3794;DHT22;1912;51.358;12.282;2023-06-26T11:56:21;35.30;1.00
3794;DHT22;1912;51.358;12.282;2023-06-26T11:59:02;35.20;1.00
3794;DHT22;1912;51.358;12.282;2023-06-26T12:04:08;34.70;1.00
3794;DHT22;1912;51.358;12.282;2023-06-26T12:06:36;35.50;1.00
3794;DHT22;1912;51.358;12.282;2023-06-26T12:09:05;35.70;1.00
3794;DHT22;1912;51.358;12.282;2023-06-26T12:11:38;36.00;1.00
3794;DHT22;1912;51.358;12.282;2023-06-26T12:14:06;36.00;1.00
3794;DHT22;1912;51.358;12.282;2023-06-26T12:16:36;35.80;1.00
3794;DHT22;1912;51.358;12.282;2023-06-26T12:19:03;35.00;1.00
3794;DHT22;1912;51.358;12.282;2023-06-26T12:21:43;35.00;1.00
3794;DHT22;1912;51.358;12.282;2023-06-26T12:24:14;35.40;1.00
3794;DHT22;1912;51.358;12.282;2023-06-26T12:26:43;35.40;1.00
3794;DHT22;1912;51.358;12.282;2023-06-26T12:29:17;35.10;1.00
3794;DHT22;1912;51.358;12.282;2023-06-26T12:31:50;35.00;1.00
3794;DHT22;1912;51.358;12.282;2023-06-26T12:34:29;35.70;1.00
3794;DHT22;1912;51.358;12.282;2023-06-26T12:37:04;36.00;1.00
3794;DHT22;1912;51.358;12.282;2023-06-26T12:39:54;35.50;1.00
3794;DHT22;1912;51.358;12.282;2023-06-26T12:42:26;35.60;1.00
3794;DHT22;1912;51.358;12.282;2023-06-26T12:44:53;35.50;1.00
3794;DHT22;1912;51.358;12.282;2023-06-26T12:47:28;36.10;1.00
3794;DHT22;1912;51.358;12.282;2023-06-26T12:49:56;35.50;1.00
3794;DHT22;1912;51.358;12.282;2023-06-26T12:52:23;35.70;1.00
3794;DHT22;1912;51.358;12.282;2023-06-26T12:54:53;35.40;1.00
3794;DHT22;1912;51.358;12.282;2023-06-26T12:57:21;35.20;1.00
3794;DHT22;1912;51.358;12.282;2023-06-26T12:59:47;35.70;1.00
3794;DHT22;1912;51.358;12.282;2023-06-26T13:02:13;35.80;1.00
3794;DHT22;1912;51.358;12.282;2023-06-26T13:04:38;35.20;1.00
3794;DHT22;1912;51.358;12.282;2023-06-26T13:07:09;34.70;1.00
3794;DHT22;1912;51.358;12.282;2023-06-26T13:09:36;34.40;1.00
3794;DHT22;1912;51.358;12.282;2023-06-26T13:12:03;34.80;1.00
3794;DHT22;1912;51.358;12.282;2023-06-26T13:14:30;34.80;1.00
3794;DHT22;1912;51.358;12.282;2023-06-26T13:16:56;34.60;1.00
3794;DHT22;1912;51.358;12.282;2023-06-26T13:19:21;34.80;1.00
3794;DHT22;1912;51.358;12.282;2023-06-26T13:21:47;35.30;1.00
3794;DHT22;1912;51.358;12.282;2023-06-26T13:24:13;35.20;1.00
3794;DHT22;1912;51.358;12.282;2023-06-26T13:26:39;35.60;1.00
3794;DHT22;1912;51.358;12.282;2023-06-26T13:29:05;35.50;1.00
3794;DHT22;1912;51.358;12.282;2023-06-26T13:31:31;35.70;1.00
3794;DHT22;1912;51.358;12.282;2023-06-26T13:33:58;35.70;1.00
3794;DHT22;1912;51.358;12.282;2023-06-26T13:36:24;35.70;1.00
3794;DHT22;1912;51.358;12.282;2023-06-26T13:38:50;35.70;1.00
3794;DHT22;1912;51.358;12.282;2023-06-26T13:41:22;35.20;1.00
3794;DHT22;1912;51.358;12.282;2023-06-26T13:43:48;35.30;1.00
3794;DHT22;1912;51.358;12.282;2023-06-26T13:46:13;35.40;1.00
3794;DHT22;1912;51.358;12.282;2023-06-26T13:48:40;35.60;1.00
3794;DHT22;1912;51.358;12.282;2023-06-26T13:51:05;35.00;1.00
3794;DHT22;1912;51.358;12.282;2023-06-26T13:53:31;34.40;1.00
3794;DHT22;1912;51.358;12.282;2023-06-26T13:55:57;34.00;1.00
3794;DHT22;1912;51.358;12.282;2023-06-26T13:58:22;33.60;1.00
3794;DHT22;1912;51.358;12.282;2023-06-26T14:00:52;33.10;1.00
3794;DHT22;1912;51.358;12.282;2023-06-26T14:03:18;32.40;1.00
3794;DHT22;1912;51.358;12.282;2023-06-26T14:05:44;30.50;1.00
3794;DHT22;1912;51.358;12.282;2023-06-26T14:08:10;28.90;1.00
3794;DHT22;1912;51.358;12.282;2023-06-26T14:10:36;27.80;1.00
3794;DHT22;1912;51.358;12.282;2023-06-26T14:13:02;27.70;1.00
3794;DHT22;1912;51.358;12.282;2023-06-26T14:15:29;28.00;1.00
3794;DHT22;1912;51.358;12.282;2023-06-26T14:17:55;27.90;1.00
3794;DHT22;1912;51.358;12.282;2023-06-26T14:20:21;28.30;1.00
3794;DHT22;1912;51.358;12.282;2023-06-26T14:22:48;28.20;1.00
3794;DHT22;1912;51.358;12.282;2023-06-26T14:25:14;28.70;1.00
3794;DHT22;1912;51.358;12.282;2023-06-26T14:27:41;28.90;1.00
3794;DHT22;1912;51.358;12.282;2023-06-26T14:30:07;28.50;1.00
3794;DHT22;1912;51.358;12.282;2023-06-26T14:32:34;28.10;1.00
3794;DHT22;1912;51.358;12.282;2023-06-26T14:35:00;28.10;1.00
3794;DHT22;1912;51.358;12.282;2023-06-26T14:37:26;28.20;1.00
3794;DHT22;1912;51.358;12.282;2023-06-26T14:39:54;28.40;1.00
3794;DHT22;1912;51.358;12.282;2023-06-26T14:42:19;28.40;1.00
3794;DHT22;1912;51.358;12.282;2023-06-26T14:44:45;28.40;1.00
3794;DHT22;1912;51.358;12.282;2023-06-26T14:47:13;28.20;1.00
3794;DHT22;1912;51.358;12.282;2023-06-26T14:49:40;28.40;1.00
3794;DHT22;1912;51.358;12.282;2023-06-26T14:52:06;28.30;1.00
3794;DHT22;1912;51.358;12.282;2023-06-26T14:54:31;28.20;1.00
3794;DHT22;1912;51.358;12.282;2023-06-26T14:56:58;28.10;1.00
3794;DHT22;1912;51.358;12.282;2023-06-26T14:59:25;27.90;1.00
3794;DHT22;1912;51.358;12.282;2023-06-26T15:01:51;28.30;1.00
3794;DHT22;1912;51.358;12.282;2023-06-26T15:04:16;28.30;1.00
3794;DHT22;1912;51.358;12.282;2023-06-26T15:06:42;28.30;1.00
3794;DHT22;1912;51.358;12.282;2023-06-26T15:09:08;28.50;1.00
3794;DHT22;1912;51.358;12.282;2023-06-26T15:11:34;28.40;1.00
3794;DHT22;1912;51.358;12.282;2023-06-26T15:14:01;28.50;1.00
3794;DHT22;1912;51.358;12.282;2023-06-26T15:16:27;28.10;1.00
3794;DHT22;1912;51.358;12.282;2023-06-26T15:18:52;28.20;1.00
3794;DHT22;1912;51.358;12.282;2023-06-26T15:21:18;28.40;1.00
3794;DHT22;1912;51.358;12.282;2023-06-26T15:23:45;28.10;1.00
3794;DHT22;1912;51.358;12.282;2023-06-26T15:26:12;28.00;1.00
3794;DHT22;1912;51.358;12.282;2023-06-26T15:28:38;28.00;1.00
3794;DHT22;1912;51.358;12.282;2023-06-26T15:31:04;27.90;1.00
3794;DHT22;1912;51.358;12.282;2023-06-26T15:33:29;27.50;1.00
3794;DHT22;1912;51.358;12.282;2023-06-26T15:35:55;27.40;1.00
3794;DHT22;1912;51.358;12.282;2023-06-26T15:38:20;27.30;1.00
3794;DHT22;1912;51.358;12.282;2023-06-26T15:40:46;26.90;1.00
3794;DHT22;1912;51.358;12.282;2023-06-26T15:43:12;27.10;1.00
3794;DHT22;1912;51.358;12.282;2023-06-26T15:45:37;27.10;1.00
3794;DHT22;1912;51.358;12.282;2023-06-26T15:48:03;27.10;1.00
3794;DHT22;1912;51.358;12.282;2023-06-26T15:50:29;26.70;1.00
3794;DHT22;1912;51.358;12.282;2023-06-26T15:52:55;26.50;1.00
3794;DHT22;1912;51.358;12.282;2023-06-26T15:55:20;26.50;1.00
3794;DHT22;1912;51.358;12.282;2023-06-26T15:57:46;26.50;1.00
3794;DHT22;1912;51.358;12.282;2023-06-26T16:00:12;26.40;1.00
3794;DHT22;1912;51.358;12.282;2023-06-26T16:02:38;26.20;1.00
3794;DHT22;1912;51.358;12.282;2023-06-26T16:05:04;26.40;1.00
3794;DHT22;1912;51.358;12.282;2023-06-26T16:07:30;26.10;1.00
3794;DHT22;1912;51.358;12.282;2023-06-26T16:09:56;25.90;1.00
3794;DHT22;1912;51.358;12.282;2023-06-26T16:12:22;25.80;1.00
3794;DHT22;1912;51.358;12.282;2023-06-26T16:14:48;25.80;1.00
3794;DHT22;1912;51.358;12.282;2023-06-26T16:17:14;25.70;1.00
3794;DHT22;1912;51.358;12.282;2023-06-26T16:19:40;25.70;1.00
3794;DHT22;1912;51.358;12.282;2023-06-26T16:22:06;25.50;1.00
3794;DHT22;1912;51.358;12.282;2023-06-26T16:24:33;25.40;1.00
3794;DHT22;1912;51.358;12.282;2023-06-26T16:26:59;25.40;1.00
3794;DHT22;1912;51.358;12.282;2023-06-26T16:29:25;25.30;1.00
3794;DHT22;1912;51.358;12.282;2023-06-26T16:31:52;25.20;1.00
3794;DHT22;1912;51.358;12.282;2023-06-26T16:34:19;25.20;1.00
3794;DHT22;1912;51.358;12.282;2023-06-26T16:36:46;25.40;1.00
3794;DHT22;1912;51.358;12.282;2023-06-26T16:39:15;25.40;1.00
3794;DHT22;1912;51.358;12.282;2023-06-26T16:41:48;25.60;1.00
3794;DHT22;1912;51.358;12.282;2023-06-26T16:44:19;25.60;1.00
3794;DHT22;1912;51.358;12.282;2023-06-26T16:46:45;25.50;1.00
3794;DHT22;1912;51.358;12.282;2023-06-26T16:49:11;25.50;1.00
3794;DHT22;1912;51.358;12.282;2023-06-26T16:51:37;25.30;1.00
3794;DHT22;1912;51.358;12.282;2023-06-26T16:54:02;25.30;1.00
3794;DHT22;1912;51.358;12.282;2023-06-26T16:56:28;25.20;1.00
3794;DHT22;1912;51.358;12.282;2023-06-26T16:58:54;25.30;1.00
3794;DHT22;1912;51.358;12.282;2023-06-26T17:01:20;25.40;1.00
3794;DHT22;1912;51.358;12.282;2023-06-26T17:03:46;25.50;1.00
3794;DHT22;1912;51.358;12.282;2023-06-26T17:06:12;25.50;1.00
3794;DHT22;1912;51.358;12.282;2023-06-26T17:08:37;25.50;1.00
3794;DHT22;1912;51.358;12.282;2023-06-26T17:11:04;25.30;1.00
3794;DHT22;1912;51.358;12.282;2023-06-26T17:13:30;25.30;1.00
3794;DHT22;1912;51.358;12.282;2023-06-26T17:15:56;25.30;1.00
3794;DHT22;1912;51.358;12.282;2023-06-26T17:18:22;25.10;1.00
3794;DHT22;1912;51.358;12.282;2023-06-26T17:20:47;25.00;1.00
3794;DHT22;1912;51.358;12.282;2023-06-26T17:23:13;25.00;1.00
3794;DHT22;1912;51.358;12.282;2023-06-26T17:25:38;25.00;1.00
3794;DHT22;1912;51.358;12.282;2023-06-26T17:28:04;24.90;1.00
3794;DHT22;1912;51.358;12.282;2023-06-26T17:30:30;25.00;1.00
3794;DHT22;1912;51.358;12.282;2023-06-26T17:32:57;25.00;1.00
3794;DHT22;1912;51.358;12.282;2023-06-26T17:35:23;25.00;1.00
3794;DHT22;1912;51.358;12.282;2023-06-26T17:37:48;25.00;1.00
3794;DHT22;1912;51.358;12.282;2023-06-26T17:40:14;25.10;1.00
3794;DHT22;1912;51.358;12.282;2023-06-26T17:42:40;25.10;1.00
3794;DHT22;1912;51.358;12.282;2023-06-26T17:45:08;25.20;1.00
3794;DHT22;1912;51.358;12.282;2023-06-26T17:47:35;25.20;1.00
3794;DHT22;1912;51.358;12.282;2023-06-26T17:50:04;25.00;1.00
3794;DHT22;1912;51.358;12.282;2023-06-26T17:52:30;24.80;1.00
3794;DHT22;1912;51.358;12.282;2023-06-26T17:54:56;24.80;1.00
3794;DHT22;1912;51.358;12.282;2023-06-26T17:57:22;24.70;1.00
3794;DHT22;1912;51.358;12.282;2023-06-26T17:59:48;24.80;1.00
3794;DHT22;1912;51.358;12.282;2023-06-26T18:02:13;24.80;1.00
3794;DHT22;1912;51.358;12.282;2023-06-26T18:04:39;24.80;1.00
3794;DHT22;1912;51.358;12.282;2023-06-26T18:07:05;24.80;1.00
3794;DHT22;1912;51.358;12.282;2023-06-26T18:09:31;24.70;1.00
3794;DHT22;1912;51.358;12.282;2023-06-26T18:11:57;24.70;1.00
3794;DHT22;1912;51.358;12.282;2023-06-26T18:14:22;24.50;1.00
3794;DHT22;1912;51.358;12.282;2023-06-26T18:16:48;24.50;1.00
3794;DHT22;1912;51.358;12.282;2023-06-26T18:19:13;24.40;1.00
3794;DHT22;1912;51.358;12.282;2023-06-26T18:21:39;24.40;1.00
3794;DHT22;1912;51.358;12.282;2023-06-26T18:24:05;24.30;1.00
3794;DHT22;1912;51.358;12.282;2023-06-26T18:26:31;24.30;1.00
3794;DHT22;1912;51.358;12.282;2023-06-26T18:28:58;24.20;1.00
3794;DHT22;1912;51.358;12.282;2023-06-26T18:31:24;24.20;1.00
3794;DHT22;1912;51.358;12.282;2023-06-26T18:33:49;24.20;1.00
3794;DHT22;1912;51.358;12.282;2023-06-26T18:36:17;24.10;1.00
3794;DHT22;1912;51.358;12.282;2023-06-26T18:38:43;24.00;1.00
3794;DHT22;1912;51.358;12.282;2023-06-26T18:41:09;24.00;1.00
3794;DHT22;1912;51.358;12.282;2023-06-26T18:43:35;24.00;1.00
3794;DHT22;1912;51.358;12.282;2023-06-26T18:46:01;24.00;1.00